Time;durP1;ratioP1;P1;durP2;ratioP2;P2;SDS_P1;SDS_P2;PMS_P1;PMS_P2;Temp;Humidity;BMP_temperature;BMP_pressure;BME280_temperature;BME280_humidity;BME280_pressure;Samples;Min_cycle;Max_cycle;Signal;HPM_P1;HPM_P2
2023/10/07 00:01:38;;;;;;;17.58;8.20;;;11.70;99.90;;;;;;4983039;28;20204;-60
2023/10/07 00:04:09;;;;;;;15.48;7.00;;;11.70;99.90;;;;;;4990108;28;20288;-61
2023/10/07 00:06:38;;;;;;;16.42;7.18;;;11.60;99.90;;;;;;4990506;28;20228;-60
2023/10/07 00:09:10;;;;;;;17.27;7.47;;;11.60;99.90;;;;;;4990171;28;20269;-61
2023/10/07 00:11:39;;;;;;;15.63;7.05;;;11.60;99.90;;;;;;4990208;28;20212;-61
2023/10/07 00:14:09;;;;;;;12.73;7.13;;;11.60;99.90;;;;;;4989958;28;20833;-61
2023/10/07 00:16:38;;;;;;;15.10;7.05;;;11.60;99.90;;;;;;4990025;28;20196;-61
2023/10/07 00:19:07;;;;;;;16.25;7.00;;;11.60;99.90;;;;;;4988943;28;20592;-61
2023/10/07 00:21:52;;;;;;;17.80;8.15;;;11.60;99.90;;;;;;4990122;28;20260;-61
2023/10/07 00:24:20;;;;;;;13.48;7.22;;;11.60;99.90;;;;;;4989931;28;20211;-61
2023/10/07 00:26:50;;;;;;;13.10;7.50;;;11.60;99.90;;;;;;4988721;28;20224;-61
2023/10/07 00:29:22;;;;;;;14.52;6.95;;;11.60;99.90;;;;;;4990942;28;20299;-61
2023/10/07 00:31:52;;;;;;;11.80;6.50;;;11.60;99.90;;;;;;5009736;28;20290;-61
2023/10/07 00:34:27;;;;;;;18.77;7.80;;;11.50;99.90;;;;;;4991263;28;20265;-61
2023/10/07 00:36:58;;;;;;;19.50;7.47;;;11.50;99.90;;;;;;4989731;28;20276;-61
2023/10/07 00:39:31;;;;;;;17.30;7.93;;;11.50;99.90;;;;;;4988753;28;20211;-62
2023/10/07 00:42:07;;;;;;;13.55;7.68;;;11.50;99.90;;;;;;4989981;28;20210;-61
2023/10/07 00:44:35;;;;;;;19.52;7.78;;;11.50;99.90;;;;;;4989643;28;20212;-61
2023/10/07 00:47:13;;;;;;;14.35;7.95;;;11.50;99.90;;;;;;4989816;28;20228;-61
2023/10/07 00:49:50;;;;;;;18.15;8.02;;;11.40;99.90;;;;;;4989629;28;20204;-61
2023/10/07 00:52:27;;;;;;;20.48;8.60;;;11.40;99.90;;;;;;4989505;28;20230;-61
2023/10/07 00:55:08;;;;;;;18.25;8.88;;;11.50;99.90;;;;;;4989100;28;20200;-61
2023/10/07 00:57:37;;;;;;;17.60;8.75;;;11.50;99.90;;;;;;4989320;28;20307;-60
2023/10/07 01:00:30;;;;;;;23.05;9.93;;;11.40;99.90;;;;;;4989509;28;20209;-61
2023/10/07 01:03:12;;;;;;;16.75;8.18;;;11.40;99.90;;;;;;4989604;28;20208;-61
2023/10/07 01:05:54;;;;;;;18.30;9.15;;;11.40;99.90;;;;;;4989469;28;20204;-61
2023/10/07 01:08:27;;;;;;;23.33;9.23;;;11.40;99.90;;;;;;4989143;28;20640;-61
2023/10/07 01:11:06;;;;;;;21.70;9.27;;;11.40;99.90;;;;;;4989257;28;20208;-61
2023/10/07 01:13:36;;;;;;;18.05;7.78;;;11.30;99.90;;;;;;4989288;28;20233;-61
2023/10/07 01:16:07;;;;;;;24.17;8.90;;;11.30;99.90;;;;;;4989571;28;20239;-61
2023/10/07 01:18:39;;;;;;;21.63;8.70;;;11.30;99.90;;;;;;4988202;28;21052;-61
2023/10/07 01:21:11;;;;;;;17.67;8.85;;;11.30;99.90;;;;;;4989054;28;20204;-61
2023/10/07 01:23:44;;;;;;;19.80;9.43;;;11.30;99.90;;;;;;4986772;28;20242;-61
2023/10/07 01:26:20;;;;;;;17.27;8.38;;;11.30;99.90;;;;;;4989176;28;20693;-61
2023/10/07 01:28:50;;;;;;;21.73;9.20;;;11.30;99.90;;;;;;4988968;28;20227;-61
2023/10/07 01:31:21;;;;;;;21.65;9.93;;;11.20;99.90;;;;;;4989263;28;20208;-61
2023/10/07 01:33:49;;;;;;;24.48;10.23;;;11.30;99.90;;;;;;4988215;28;20208;-61
2023/10/07 01:36:19;;;;;;;18.77;9.13;;;11.20;99.90;;;;;;4988118;28;20204;-61
2023/10/07 01:38:51;;;;;;;16.40;8.60;;;11.20;99.90;;;;;;5000694;28;20586;-61
2023/10/07 01:41:19;;;;;;;16.58;9.20;;;11.20;99.90;;;;;;5011542;28;20199;-60
2023/10/07 01:43:56;;;;;;;23.92;9.55;;;11.20;99.90;;;;;;5011779;28;20859;-61
2023/10/07 01:46:27;;;;;;;20.10;9.18;;;11.20;99.90;;;;;;5011040;28;20599;-61
2023/10/07 01:49:01;;;;;;;20.00;10.10;;;11.20;99.90;;;;;;5011553;28;20223;-60
2023/10/07 01:51:30;;;;;;;17.25;9.32;;;11.10;99.90;;;;;;4994194;28;20239;-61
2023/10/07 01:54:02;;;;;;;23.05;10.52;;;11.10;99.90;;;;;;4991911;28;20238;-61
2023/10/07 01:56:31;;;;;;;22.35;10.10;;;11.10;99.90;;;;;;4992465;28;20200;-61
2023/10/07 01:59:04;;;;;;;21.20;10.02;;;11.10;99.90;;;;;;4992327;28;20311;-61
2023/10/07 02:01:35;;;;;;;17.75;9.15;;;11.10;99.90;;;;;;4992227;28;20212;-61
2023/10/07 02:04:15;;;;;;;21.90;10.63;;;11.10;99.90;;;;;;4992084;28;20624;-61
2023/10/07 02:06:51;;;;;;;18.73;9.77;;;11.10;99.90;;;;;;4992346;28;20232;-61
2023/10/07 02:09:24;;;;;;;20.65;10.10;;;11.10;99.90;;;;;;4992008;28;20287;-61
2023/10/07 02:11:53;;;;;;;19.27;10.27;;;11.10;99.90;;;;;;4991435;28;20212;-60
2023/10/07 02:14:24;;;;;;;20.05;10.40;;;11.00;99.90;;;;;;4992054;28;20615;-60
2023/10/07 02:16:52;;;;;;;19.88;9.63;;;11.00;99.90;;;;;;4991750;28;20642;-61
2023/10/07 02:19:29;;;;;;;20.58;10.55;;;11.00;99.90;;;;;;4990684;28;20225;-60
2023/10/07 02:21:59;;;;;;;22.90;10.35;;;11.00;99.90;;;;;;4997872;28;20248;-60
2023/10/07 02:24:30;;;;;;;23.83;9.98;;;11.00;99.90;;;;;;5011320;28;20211;-61
2023/10/07 02:27:04;;;;;;;21.10;10.30;;;10.90;99.90;;;;;;5011500;28;20219;-61
2023/10/07 02:29:32;;;;;;;20.48;9.65;;;10.90;99.90;;;;;;5004247;28;20610;-61
2023/10/07 02:32:13;;;;;;;20.00;11.07;;;10.90;99.90;;;;;;4992108;28;20299;-60
2023/10/07 02:34:52;;;;;;;18.25;9.57;;;10.90;99.90;;;;;;4991482;28;20291;-61
2023/10/07 02:37:21;;;;;;;24.25;10.60;;;10.90;99.90;;;;;;4991853;28;20216;-60
2023/10/07 02:39:56;;;;;;;16.90;8.77;;;10.80;99.90;;;;;;4991154;28;20589;-61
2023/10/07 02:42:24;;;;;;;21.60;9.85;;;10.80;99.90;;;;;;4991561;28;20215;-60
2023/10/07 02:45:00;;;;;;;31.98;10.07;;;10.80;99.90;;;;;;4992172;28;20204;-61
2023/10/07 02:47:32;;;;;;;16.58;9.13;;;10.80;99.90;;;;;;4989709;28;20319;-61
2023/10/07 02:50:01;;;;;;;20.67;9.63;;;10.80;99.90;;;;;;5004899;28;20631;-61
2023/10/07 02:52:35;;;;;;;19.15;9.88;;;10.80;99.90;;;;;;5011123;28;20215;-61
2023/10/07 02:55:28;;;;;;;23.10;10.32;;;10.80;99.90;;;;;;5010671;28;20204;-61
2023/10/07 02:57:56;;;;;;;22.48;10.10;;;10.80;99.90;;;;;;5010903;28;20314;-61
2023/10/07 03:00:35;;;;;;;21.40;9.63;;;10.70;99.90;;;;;;5010890;28;20210;-61
2023/10/07 03:05:58;;;;;;;23.77;10.45;;;10.70;99.90;;;;;;5009130;28;20581;-61
2023/10/07 03:08:40;;;;;;;24.70;10.65;;;10.70;99.90;;;;;;5010147;28;20692;-61
2023/10/07 03:11:13;;;;;;;17.08;8.85;;;10.60;99.90;;;;;;5010725;28;20203;-61
2023/10/07 03:13:45;;;;;;;20.10;9.40;;;10.60;99.90;;;;;;5002098;28;20673;-61
2023/10/07 03:16:35;;;;;;;23.70;10.20;;;10.60;99.90;;;;;;4991173;28;20261;-61
2023/10/07 03:19:20;;;;;;;23.50;9.77;;;10.60;99.90;;;;;;4983910;28;20228;-61
2023/10/07 03:22:06;;;;;;;17.50;9.23;;;10.50;99.90;;;;;;4987680;28;20408;-61
2023/10/07 03:24:41;;;;;;;22.27;9.93;;;10.50;99.90;;;;;;5010361;28;20242;-61
2023/10/07 03:27:21;;;;;;;18.75;9.93;;;10.50;99.90;;;;;;5010544;28;20230;-61
2023/10/07 03:30:12;;;;;;;21.05;9.82;;;10.40;99.90;;;;;;4999238;28;20401;-61
2023/10/07 03:32:55;;;;;;;26.15;9.77;;;10.50;99.90;;;;;;4990924;28;20237;-61
2023/10/07 03:35:59;;;;;;;24.50;10.18;;;10.40;99.90;;;;;;4990952;28;20211;-61
2023/10/07 03:38:27;;;;;;;18.95;9.00;;;10.40;99.90;;;;;;4990747;28;20220;-61
2023/10/07 03:40:55;;;;;;;19.92;9.98;;;10.40;99.90;;;;;;4990173;28;20258;-61
2023/10/07 03:43:26;;;;;;;16.58;9.07;;;10.40;99.90;;;;;;4990874;28;20208;-61
2023/10/07 03:45:54;;;;;;;21.60;9.68;;;10.30;99.90;;;;;;4990831;28;20652;-61
2023/10/07 03:48:24;;;;;;;20.55;9.55;;;10.30;99.90;;;;;;4990398;28;20749;-61
2023/10/07 03:50:59;;;;;;;20.95;10.00;;;10.30;99.90;;;;;;4990650;28;20714;-61
2023/10/07 03:53:31;;;;;;;18.35;9.40;;;10.30;99.90;;;;;;4990621;28;20290;-61
2023/10/07 03:56:06;;;;;;;22.35;9.80;;;10.30;99.90;;;;;;5003991;28;20624;-61
2023/10/07 03:58:41;;;;;;;15.52;9.25;;;10.30;99.90;;;;;;5009551;28;20223;-61
2023/10/07 04:01:16;;;;;;;18.90;10.02;;;10.30;99.90;;;;;;5009874;28;20205;-61
2023/10/07 04:03:46;;;;;;;20.17;9.95;;;10.30;99.90;;;;;;5009246;28;20214;-61
2023/10/07 04:06:16;;;;;;;17.40;9.93;;;10.30;99.90;;;;;;5010322;28;20214;-61
2023/10/07 04:08:45;;;;;;;21.50;10.35;;;10.20;99.90;;;;;;4994142;28;20227;-61
2023/10/07 04:11:15;;;;;;;21.52;10.43;;;10.20;99.90;;;;;;4997117;28;20257;-61
2023/10/07 04:13:53;;;;;;;26.35;11.18;;;10.20;99.90;;;;;;5009874;28;20203;-61
2023/10/07 04:16:24;;;;;;;22.77;10.30;;;10.20;99.90;;;;;;5010144;28;20215;-61
2023/10/07 04:18:53;;;;;;;16.15;9.25;;;10.20;99.90;;;;;;5009634;28;20223;-61
2023/10/07 04:21:21;;;;;;;22.17;10.95;;;10.20;99.90;;;;;;5009673;28;20646;-61
2023/10/07 04:23:49;;;;;;;28.25;11.63;;;10.20;99.90;;;;;;4991632;28;20212;-61
2023/10/07 04:26:20;;;;;;;18.33;10.63;;;10.30;99.90;;;;;;4997659;28;20523;-60
2023/10/07 04:28:50;;;;;;;21.75;9.70;;;10.30;99.90;;;;;;5009511;28;20261;-61
2023/10/07 04:31:29;;;;;;;20.52;9.60;;;10.30;99.90;;;;;;5009657;28;20258;-60
2023/10/07 04:34:02;;;;;;;25.77;11.40;;;10.30;99.90;;;;;;5009493;28;20298;-61
2023/10/07 04:36:33;;;;;;;23.80;11.02;;;10.40;99.90;;;;;;4994444;28;20240;-61
2023/10/07 04:39:17;;;;;;;22.90;10.63;;;10.30;99.90;;;;;;4989732;28;20794;-61
2023/10/07 04:41:56;;;;;;;24.58;10.25;;;10.40;99.90;;;;;;5009104;28;20684;-60
2023/10/07 04:45:15;;;;;;;20.40;10.63;;;10.40;99.90;;;;;;5009451;28;20253;-60
2023/10/07 04:47:34;;;;;;;25.05;9.55;;;10.50;99.90;;;;;;5009428;28;20227;-60
2023/10/07 04:50:08;;;;;;;22.10;10.13;;;10.50;99.90;;;;;;5009404;28;20203;-61
2023/10/07 04:52:40;;;;;;;19.17;10.38;;;10.50;99.90;;;;;;5009288;28;20760;-61
2023/10/07 04:55:12;;;;;;;23.85;11.27;;;10.50;99.90;;;;;;5009084;28;20291;-61
2023/10/07 04:57:44;;;;;;;26.63;10.50;;;10.50;99.90;;;;;;5009415;28;20263;-61
2023/10/07 05:00:27;;;;;;;21.23;11.00;;;10.60;99.90;;;;;;5009282;28;20210;-61
2023/10/07 05:02:57;;;;;;;21.83;9.95;;;10.50;99.90;;;;;;5005744;28;20218;-61
2023/10/07 05:05:28;;;;;;;21.70;10.68;;;10.60;99.90;;;;;;4989698;28;20208;-61
2023/10/07 05:07:58;;;;;;;29.00;10.93;;;10.60;99.90;;;;;;5017834;22;20292;-58
2023/10/07 05:10:29;;;;;;;24.02;11.52;;;10.60;99.90;;;;;;5110835;28;20299;-58
2023/10/07 05:13:01;;;;;;;22.70;10.43;;;10.60;99.90;;;;;;5112229;28;20199;-58
2023/10/07 05:15:31;;;;;;;21.65;9.88;;;10.60;99.90;;;;;;5111609;28;20676;-58
2023/10/07 05:18:01;;;;;;;26.38;10.88;;;10.60;99.90;;;;;;5111948;28;20211;-58
2023/10/07 05:20:32;;;;;;;22.80;10.57;;;10.70;99.90;;;;;;5111868;28;20204;-58
2023/10/07 05:23:02;;;;;;;25.73;11.23;;;10.70;99.90;;;;;;5112033;28;20207;-58
2023/10/07 05:25:35;;;;;;;18.27;9.63;;;10.70;99.90;;;;;;5112078;28;20204;-58
2023/10/07 05:28:10;;;;;;;20.92;10.30;;;10.80;99.90;;;;;;5111631;28;20227;-58
2023/10/07 05:30:43;;;;;;;18.63;9.73;;;10.80;99.90;;;;;;5106649;28;20680;-58
2023/10/07 05:33:10;;;;;;;21.33;9.95;;;10.80;99.90;;;;;;5109819;28;20203;-58
2023/10/07 05:35:38;;;;;;;20.55;10.18;;;10.90;99.90;;;;;;5095474;28;20214;-58
2023/10/07 05:38:09;;;;;;;16.98;10.00;;;10.90;99.90;;;;;;5102770;28;20252;-58
2023/10/07 05:40:38;;;;;;;23.52;10.25;;;10.90;99.90;;;;;;5103301;28;20631;-58
2023/10/07 05:43:08;;;;;;;18.60;9.95;;;10.90;99.90;;;;;;5109772;28;20207;-58
2023/10/07 05:45:36;;;;;;;21.45;9.95;;;11.00;99.90;;;;;;5111629;28;20237;-58
2023/10/07 05:48:06;;;;;;;16.10;9.25;;;11.00;99.90;;;;;;5111704;28;20313;-57
2023/10/07 05:50:34;;;;;;;19.80;9.55;;;11.00;99.90;;;;;;5110604;28;20235;-57
2023/10/07 05:53:03;;;;;;;21.38;9.93;;;11.00;99.90;;;;;;5100460;28;20235;-57
2023/10/07 05:55:33;;;;;;;15.43;8.57;;;11.10;99.90;;;;;;5105076;28;20214;-57
2023/10/07 05:58:02;;;;;;;20.90;9.30;;;11.10;99.90;;;;;;5095008;28;20224;-58
2023/10/07 06:00:31;;;;;;;18.25;9.52;;;11.10;99.90;;;;;;5103260;28;20650;-57
2023/10/07 06:03:02;;;;;;;20.50;9.43;;;11.10;99.90;;;;;;5107838;28;20196;-57
2023/10/07 06:05:33;;;;;;;19.90;9.23;;;11.10;99.90;;;;;;5108347;28;20219;-56
2023/10/07 06:08:01;;;;;;;22.33;9.38;;;11.10;99.90;;;;;;5110343;28;20395;-57
2023/10/07 06:10:29;;;;;;;19.15;9.43;;;11.20;99.90;;;;;;5110010;28;20567;-57
2023/10/07 06:12:57;;;;;;;17.77;8.95;;;11.20;99.90;;;;;;5111475;28;20612;-57
2023/10/07 06:15:25;;;;;;;17.88;9.48;;;11.20;99.90;;;;;;5110387;28;20236;-57
2023/10/07 06:17:52;;;;;;;15.65;8.50;;;11.30;99.90;;;;;;5099090;28;20252;-57
2023/10/07 06:20:26;;;;;;;19.88;8.90;;;11.30;99.90;;;;;;5104199;28;20598;-57
2023/10/07 06:22:56;;;;;;;19.05;8.98;;;11.30;99.90;;;;;;5110453;28;20203;-58
2023/10/07 06:25:30;;;;;;;19.50;9.93;;;11.30;99.90;;;;;;5107477;28;20665;-57
2023/10/07 06:27:59;;;;;;;19.92;10.07;;;11.30;99.90;;;;;;5107930;28;20255;-58
2023/10/07 06:30:28;;;;;;;18.42;8.55;;;11.30;99.90;;;;;;5109784;28;20700;-56
2023/10/07 06:32:56;;;;;;;14.82;7.95;;;11.30;99.90;;;;;;5114676;28;20200;-58
2023/10/07 06:35:25;;;;;;;16.20;8.52;;;11.40;99.90;;;;;;5106268;28;20262;-57
2023/10/07 06:37:54;;;;;;;18.85;8.52;;;11.40;99.90;;;;;;5106011;28;20248;-56
2023/10/07 06:40:28;;;;;;;18.83;9.13;;;11.40;99.90;;;;;;5110004;28;20253;-56
2023/10/07 06:42:58;;;;;;;15.32;7.93;;;11.40;99.90;;;;;;5114445;28;20204;-57
2023/10/07 06:45:35;;;;;;;16.95;9.43;;;11.40;99.90;;;;;;5106720;28;20635;-58
2023/10/07 06:48:05;;;;;;;19.98;8.98;;;11.40;99.90;;;;;;5107673;28;20251;-56
2023/10/07 06:50:34;;;;;;;17.67;9.45;;;11.40;99.90;;;;;;5113400;28;20219;-56
2023/10/07 06:53:02;;;;;;;18.58;9.95;;;11.40;99.90;;;;;;5101941;28;20197;-56
2023/10/07 06:55:36;;;;;;;15.93;8.77;;;11.40;99.90;;;;;;5100691;28;20712;-57
2023/10/07 06:58:04;;;;;;;20.02;10.13;;;11.50;99.90;;;;;;5113973;28;20241;-57
2023/10/07 07:00:47;;;;;;;19.13;9.25;;;11.50;99.90;;;;;;5105536;28;20200;-57
2023/10/07 07:03:17;;;;;;;23.90;8.40;;;11.50;99.90;;;;;;5102877;28;20660;-56
2023/10/07 07:05:46;;;;;;;18.10;8.40;;;11.80;99.90;;;;;;5114326;28;20261;-56
2023/10/07 07:08:15;;;;;;;18.90;8.52;;;12.40;99.90;;;;;;5114010;28;20228;-58
2023/10/07 07:10:47;;;;;;;18.85;8.63;;;13.10;99.90;;;;;;5112060;28;20752;-57
2023/10/07 07:13:17;;;;;;;16.50;8.18;;;13.60;99.90;;;;;;5105895;28;20211;-56
2023/10/07 07:15:57;;;;;;;17.30;8.63;;;14.00;99.90;;;;;;5095346;28;20291;-56
2023/10/07 07:18:26;;;;;;;21.55;9.45;;;14.00;99.90;;;;;;5108592;28;20243;-57
2023/10/07 07:21:13;;;;;;;20.00;9.00;;;13.80;99.90;;;;;;5112666;28;20200;-57
2023/10/07 07:23:45;;;;;;;15.60;8.68;;;13.50;99.90;;;;;;5111944;28;20203;-57
2023/10/07 07:26:18;;;;;;;15.85;8.65;;;13.20;99.90;;;;;;5113996;28;20636;-57
2023/10/07 07:28:46;;;;;;;21.75;9.65;;;13.00;99.90;;;;;;5101293;28;20229;-59
2023/10/07 07:31:26;;;;;;;19.83;10.15;;;12.80;99.90;;;;;;5113849;28;20706;-58
2023/10/07 07:34:06;;;;;;;20.55;9.85;;;12.60;99.90;;;;;;5094270;28;20205;-57
2023/10/07 07:36:39;;;;;;;21.80;10.68;;;12.50;99.90;;;;;;5093088;28;20212;-57
2023/10/07 07:39:09;;;;;;;20.25;9.68;;;12.40;99.90;;;;;;5094505;28;20224;-57
2023/10/07 07:41:55;;;;;;;27.52;10.82;;;12.40;99.90;;;;;;5108318;28;20200;-57
2023/10/07 07:44:33;;;;;;;20.75;10.45;;;12.30;99.90;;;;;;5113648;28;20208;-57
2023/10/07 07:47:02;;;;;;;21.77;10.45;;;12.30;99.90;;;;;;5111787;28;20203;-57
2023/10/07 07:49:32;;;;;;;22.17;10.65;;;12.30;99.90;;;;;;5109322;28;20737;-56
2023/10/07 07:52:00;;;;;;;19.83;10.65;;;12.30;99.90;;;;;;5095753;28;20208;-55
2023/10/07 07:54:29;;;;;;;23.88;10.07;;;12.30;99.90;;;;;;5108003;28;20295;-54
2023/10/07 07:57:04;;;;;;;22.38;10.10;;;12.30;99.90;;;;;;5111068;28;20195;-54
2023/10/07 07:59:33;;;;;;;20.95;10.55;;;12.30;99.90;;;;;;5109267;28;20220;-56
2023/10/07 08:02:11;;;;;;;19.92;10.80;;;12.30;99.90;;;;;;5113128;28;20207;-55
2023/10/07 08:04:43;;;;;;;15.07;9.77;;;12.30;99.90;;;;;;5105376;28;20195;-56
2023/10/07 08:07:18;;;;;;;16.95;9.63;;;12.40;99.90;;;;;;5103530;28;20218;-55
2023/10/07 08:09:50;;;;;;;18.52;9.23;;;12.40;99.90;;;;;;5105572;28;20231;-55
2023/10/07 08:12:28;;;;;;;20.45;10.23;;;12.50;99.90;;;;;;5108286;28;20665;-55
2023/10/07 08:14:58;;;;;;;20.00;9.80;;;12.60;99.90;;;;;;5092094;28;20204;-54
2023/10/07 08:17:27;;;;;;;15.63;9.00;;;12.70;99.90;;;;;;5106633;28;20216;-55
2023/10/07 08:19:57;;;;;;;21.00;9.95;;;12.80;99.90;;;;;;5109196;28;20917;-54
2023/10/07 08:22:27;;;;;;;18.48;9.38;;;12.90;99.90;;;;;;5098282;28;20215;-55
2023/10/07 08:25:00;;;;;;;18.52;9.50;;;13.00;99.90;;;;;;5106412;28;20305;-56
2023/10/07 08:27:45;;;;;;;19.60;9.30;;;13.10;99.90;;;;;;5090615;28;20208;-55
2023/10/07 08:30:28;;;;;;;15.77;8.70;;;13.10;99.90;;;;;;5096921;28;20223;-56
2023/10/07 08:32:56;;;;;;;17.50;9.00;;;13.20;99.90;;;;;;5098618;28;20598;-55
2023/10/07 08:35:26;;;;;;;25.42;9.43;;;13.30;99.90;;;;;;5104365;28;20608;-56
2023/10/07 08:37:54;;;;;;;18.08;8.82;;;13.40;99.90;;;;;;5091600;28;20306;-55
2023/10/07 08:40:28;;;;;;;15.65;8.35;;;13.50;99.90;;;;;;5098063;28;20203;-55
2023/10/07 08:42:58;;;;;;;19.83;8.85;;;13.60;99.90;;;;;;5107882;28;20203;-57
2023/10/07 08:45:28;;;;;;;14.13;7.20;;;13.70;99.90;;;;;;5100353;28;20209;-55
2023/10/07 08:48:08;;;;;;;18.70;9.07;;;13.80;99.90;;;;;;5108267;28;20237;-56
2023/10/07 08:50:43;;;;;;;18.42;8.05;;;14.00;99.90;;;;;;5099210;28;20281;-55
2023/10/07 08:53:14;;;;;;;15.85;7.63;;;14.20;99.90;;;;;;5099547;28;20265;-57
2023/10/07 08:55:43;;;;;;;20.83;8.07;;;14.30;99.90;;;;;;5108077;28;20201;-56
2023/10/07 08:58:14;;;;;;;18.25;8.23;;;14.40;99.90;;;;;;5105473;28;20314;-57
2023/10/07 09:00:45;;;;;;;17.08;7.68;;;14.50;99.90;;;;;;5104364;28;20212;-56
2023/10/07 09:03:15;;;;;;;14.57;8.30;;;14.60;99.90;;;;;;5091721;28;20955;-56
2023/10/07 09:05:44;;;;;;;17.02;8.38;;;14.70;99.90;;;;;;5100108;28;20285;-56
2023/10/07 09:08:13;;;;;;;13.57;8.05;;;14.60;99.90;;;;;;5098607;28;20786;-56
2023/10/07 09:10:45;;;;;;;16.92;8.13;;;14.60;99.90;;;;;;5098271;28;20700;-56
2023/10/07 09:13:26;;;;;;;18.55;8.30;;;14.50;99.90;;;;;;5100151;28;20254;-55
2023/10/07 09:15:55;;;;;;;14.10;7.47;;;14.50;99.90;;;;;;5100308;28;20579;-56
2023/10/07 09:18:28;;;;;;;13.73;7.95;;;14.50;99.90;;;;;;5109746;28;20272;-57
2023/10/07 09:20:57;;;;;;;16.20;8.77;;;14.50;99.90;;;;;;5100252;28;20710;-57
2023/10/07 09:23:34;;;;;;;15.98;7.97;;;14.60;99.90;;;;;;5098768;28;20211;-57
2023/10/07 09:26:14;;;;;;;16.77;7.53;;;14.60;99.90;;;;;;5091192;28;20207;-57
2023/10/07 09:28:47;;;;;;;16.45;8.82;;;14.60;99.90;;;;;;5091129;28;20224;-58
2023/10/07 09:31:15;;;;;;;22.10;8.70;;;14.70;99.90;;;;;;5091350;28;20224;-58
2023/10/07 09:33:45;;;;;;;18.20;7.47;;;14.70;99.90;;;;;;5091486;28;20300;-57
2023/10/07 09:36:34;;;;;;;16.75;7.65;;;14.80;99.90;;;;;;5091558;28;20362;-57
2023/10/07 09:39:31;;;;;;;15.40;8.23;;;14.80;99.90;;;;;;5091430;28;20216;-56
2023/10/07 09:42:04;;;;;;;15.48;7.85;;;14.90;99.90;;;;;;5091287;28;20204;-57
2023/10/07 09:44:37;;;;;;;18.23;7.97;;;15.00;99.90;;;;;;5091333;28;20236;-56
2023/10/07 09:47:12;;;;;;;14.93;7.85;;;15.00;99.90;;;;;;5103502;28;20215;-57
2023/10/07 09:49:41;;;;;;;17.05;7.57;;;15.10;99.90;;;;;;5107709;28;20806;-57
2023/10/07 09:52:16;;;;;;;11.95;7.55;;;15.20;99.90;;;;;;5098159;28;20224;-57
2023/10/07 09:54:51;;;;;;;12.43;7.75;;;15.30;99.90;;;;;;5091081;28;20704;-56
2023/10/07 09:57:29;;;;;;;16.13;7.88;;;15.40;99.90;;;;;;5090992;28;20247;-57
2023/10/07 10:00:38;;;;;;;14.82;7.90;;;15.60;99.90;;;;;;5091239;28;20204;-57
2023/10/07 10:03:28;;;;;;;13.15;6.93;;;15.80;99.90;;;;;;5095505;28;20639;-56
2023/10/07 10:06:07;;;;;;;15.02;7.75;;;16.00;99.90;;;;;;5094999;28;20240;-56
2023/10/07 10:08:58;;;;;;;10.68;7.22;;;16.00;99.90;;;;;;5095001;28;20235;-57
2023/10/07 10:11:44;;;;;;;16.77;7.47;;;16.10;99.90;;;;;;5103133;28;20757;-57
2023/10/07 10:14:18;;;;;;;16.67;7.50;;;16.10;99.90;;;;;;5115566;28;20241;-56
2023/10/07 10:16:53;;;;;;;12.30;6.95;;;16.10;99.90;;;;;;5115618;28;20211;-56
2023/10/07 10:19:26;;;;;;;12.23;6.95;;;16.20;99.90;;;;;;5115282;28;20222;-57
2023/10/07 10:21:53;;;;;;;18.08;6.85;;;16.30;99.90;;;;;;5115164;28;20271;-56
2023/10/07 10:24:25;;;;;;;12.18;6.90;;;16.30;99.90;;;;;;5110710;28;20199;-56
2023/10/07 10:27:04;;;;;;;14.48;7.40;;;16.50;99.90;;;;;;5114913;28;20210;-57
2023/10/07 10:29:36;;;;;;;14.60;6.85;;;16.70;99.90;;;;;;5115217;28;20227;-57
2023/10/07 10:32:16;;;;;;;13.07;7.28;;;16.80;99.90;;;;;;5115013;28;20227;-56
2023/10/07 10:34:46;;;;;;;15.18;6.85;;;16.90;99.90;;;;;;5114837;28;20664;-55
2023/10/07 10:37:15;;;;;;;10.32;6.80;;;16.90;99.90;;;;;;5114864;28;20253;-55
2023/10/07 10:39:43;;;;;;;12.05;6.32;;;16.90;99.90;;;;;;5114863;28;20228;-57
2023/10/07 10:42:13;;;;;;;19.65;7.05;;;16.80;99.90;;;;;;5115114;28;20285;-58
2023/10/07 10:44:46;;;;;;;12.38;7.28;;;16.70;99.90;;;;;;5114744;28;20698;-56
2023/10/07 10:47:18;;;;;;;15.35;7.15;;;16.70;99.90;;;;;;5114481;28;20257;-57
2023/10/07 10:49:47;;;;;;;18.45;7.40;;;16.80;99.90;;;;;;5112746;28;20763;-57
2023/10/07 10:52:15;;;;;;;11.73;5.93;;;17.00;99.90;;;;;;5108697;28;20261;-58
2023/10/07 10:54:44;;;;;;;9.43;4.95;;;17.20;99.90;;;;;;5114584;28;20660;-58
2023/10/07 10:57:14;;;;;;;9.05;5.05;;;17.50;99.90;;;;;;5094380;28;20200;-57
2023/10/07 10:59:43;;;;;;;9.10;4.40;;;18.10;99.90;;;;;;5093728;28;20224;-57
2023/10/07 11:02:16;;;;;;;10.75;4.93;;;18.50;99.90;;;;;;5094495;28;20196;-56
2023/10/07 11:04:46;;;;;;;10.15;4.22;;;18.80;99.90;;;;;;5093824;28;20204;-58
2023/10/07 11:07:14;;;;;;;11.00;4.57;;;18.80;99.90;;;;;;5106075;28;20831;-58
2023/10/07 11:09:42;;;;;;;8.30;4.35;;;18.60;99.90;;;;;;5114151;28;20231;-59
2023/10/07 11:12:12;;;;;;;8.73;4.50;;;18.60;99.90;;;;;;5113468;28;20672;-59
2023/10/07 11:14:41;;;;;;;9.63;4.65;;;18.60;99.90;;;;;;5114315;28;20290;-59
2023/10/07 11:17:12;;;;;;;9.75;4.97;;;18.70;99.90;;;;;;5104024;28;20220;-59
2023/10/07 11:19:42;;;;;;;10.48;5.30;;;18.80;99.90;;;;;;5093644;28;20227;-59
2023/10/07 11:22:19;;;;;;;9.88;5.13;;;19.00;99.90;;;;;;5093798;28;20200;-59
2023/10/07 11:24:50;;;;;;;10.50;5.55;;;19.50;99.90;;;;;;5093351;28;20203;-58
2023/10/07 11:27:18;;;;;;;12.25;6.07;;;20.20;99.90;;;;;;5101037;28;20295;-60
2023/10/07 11:29:57;;;;;;;12.77;5.85;;;21.00;99.90;;;;;;5092593;28;20542;-59
2023/10/07 11:32:29;;;;;;;9.55;5.25;;;21.80;99.90;;;;;;5093096;28;20252;-60
2023/10/07 11:34:59;;;;;;;11.07;5.05;;;22.50;99.90;;;;;;5093056;28;20208;-59
2023/10/07 11:37:29;;;;;;;9.15;5.03;;;23.10;99.90;;;;;;5093385;28;20239;-60
2023/10/07 11:39:57;;;;;;;10.25;4.68;;;23.50;99.90;;;;;;5101177;28;20262;-59
2023/10/07 11:42:24;;;;;;;7.95;3.95;;;23.80;99.90;;;;;;5093429;28;20567;-60
2023/10/07 11:44:54;;;;;;;7.97;3.85;;;24.10;99.90;;;;;;5092864;28;20292;-59
2023/10/07 11:47:24;;;;;;;9.45;4.60;;;24.30;99.90;;;;;;5093245;28;20207;-59
2023/10/07 11:49:54;;;;;;;8.13;3.72;;;24.70;99.90;;;;;;5092741;28;20243;-59
2023/10/07 11:52:23;;;;;;;5.10;4.15;;;24.90;99.90;;;;;;5093062;28;20613;-59
2023/10/07 11:54:53;;;;;;;5.00;3.95;;;25.00;99.90;;;;;;5092667;28;20211;-59
2023/10/07 11:57:21;;;;;;;6.43;4.10;;;25.00;99.90;;;;;;5093363;28;20208;-58
2023/10/07 11:59:49;;;;;;;7.15;3.80;;;24.60;99.90;;;;;;5101308;28;20613;-59
2023/10/07 12:02:17;;;;;;;5.97;3.78;;;24.00;99.90;;;;;;5092811;28;20247;-59
2023/10/07 12:04:46;;;;;;;34.42;12.32;;;23.40;99.90;;;;;;5092489;28;20253;-59
2023/10/07 12:07:16;;;;;;;8.48;4.60;;;23.50;99.90;;;;;;5092644;28;20204;-60
2023/10/07 12:09:46;;;;;;;6.43;4.15;;;23.70;99.90;;;;;;5091783;28;20784;-59
2023/10/07 12:12:17;;;;;;;6.65;3.85;;;24.00;99.90;;;;;;5092435;28;20223;-59
2023/10/07 12:14:47;;;;;;;8.82;3.80;;;24.30;99.90;;;;;;5092518;28;20250;-59
2023/10/07 12:17:16;;;;;;;6.95;3.80;;;24.60;99.90;;;;;;5096284;28;20648;-59
2023/10/07 12:19:44;;;;;;;5.95;3.78;;;25.00;99.90;;;;;;5096030;28;20232;-59
2023/10/07 12:22:13;;;;;;;7.47;4.82;;;25.20;99.90;;;;;;5091212;28;20192;-59
2023/10/07 12:24:42;;;;;;;6.25;4.25;;;25.30;99.90;;;;;;5090330;28;20261;-59
2023/10/07 12:27:11;;;;;;;7.57;4.13;;;25.50;99.90;;;;;;5099373;28;20680;-58
2023/10/07 12:29:41;;;;;;;6.75;4.35;;;25.80;99.90;;;;;;5091172;28;20288;-59
2023/10/07 12:32:09;;;;;;;7.88;4.32;;;25.90;99.90;;;;;;5091299;28;20311;-58
2023/10/07 12:34:40;;;;;;;7.53;3.83;;;25.60;99.90;;;;;;5090867;28;20260;-60
2023/10/07 12:37:08;;;;;;;5.22;3.40;;;25.50;99.90;;;;;;5098241;28;20222;-59
2023/10/07 12:39:39;;;;;;;7.03;4.22;;;25.60;99.90;;;;;;5102814;28;20315;-59
2023/10/07 12:42:08;;;;;;;5.70;3.85;;;25.50;99.90;;;;;;5108580;28;20573;-59
2023/10/07 12:44:36;;;;;;;5.78;3.97;;;25.60;99.90;;;;;;5104082;28;20212;-58
2023/10/07 12:47:08;;;;;;;5.47;3.88;;;25.40;99.90;;;;;;5104485;28;20199;-59
2023/10/07 12:49:40;;;;;;;7.65;4.00;;;25.50;99.90;;;;;;5104222;28;20223;-59
2023/10/07 12:52:09;;;;;;;6.75;4.43;;;25.70;99.90;;;;;;5099825;28;20342;-58
2023/10/07 12:54:37;;;;;;;13.77;4.32;;;25.60;99.90;;;;;;5100256;28;20211;-59
2023/10/07 12:57:07;;;;;;;5.85;4.15;;;25.60;99.90;;;;;;5101979;28;20286;-59
2023/10/07 12:59:37;;;;;;;5.70;3.80;;;25.80;99.90;;;;;;5108700;28;20223;-58
2023/10/07 13:02:09;;;;;;;5.57;3.78;;;25.80;99.90;;;;;;5095557;28;20200;-59
2023/10/07 13:04:37;;;;;;;7.68;4.00;;;25.90;99.90;;;;;;5096799;28;20207;-58
2023/10/07 13:07:10;;;;;;;7.55;3.88;;;26.00;99.90;;;;;;5103980;28;20207;-59